createdAt,value
2022-09-28T00:01:18.965Z,19.61
2022-09-28T00:03:42.223Z,19.66
2022-09-28T00:06:07.897Z,19.62
2022-09-28T00:08:31.144Z,19.68
2022-09-28T00:10:56.637Z,19.51
2022-09-28T00:13:19.959Z,19.47
2022-09-28T00:15:43.147Z,19.36
2022-09-28T00:18:06.523Z,19.58
2022-09-28T00:20:29.785Z,19.59
2022-09-28T00:22:54.399Z,19.52
2022-09-28T00:25:17.875Z,19.64
2022-09-28T00:27:41.362Z,19.78
2022-09-28T00:30:05.105Z,19.91
2022-09-28T00:32:28.641Z,19.70
2022-09-28T00:34:52.003Z,19.47
2022-09-28T00:37:15.256Z,19.49
2022-09-28T00:39:41.374Z,19.64
2022-09-28T00:42:05.690Z,19.55
2022-09-28T00:44:50.164Z,19.49
2022-09-28T00:47:37.433Z,19.54
2022-09-28T00:50:02.205Z,19.49
2022-09-28T00:52:27.822Z,19.32
2022-09-28T00:54:52.407Z,19.37
2022-09-28T00:57:15.353Z,19.20
2022-09-28T00:59:38.633Z,19.15
2022-09-28T01:02:02.040Z,19.16
2022-09-28T01:04:29.756Z,19.23
2022-09-28T01:06:53.326Z,19.35
2022-09-28T01:09:16.623Z,19.36
2022-09-28T01:11:42.367Z,19.30
2022-09-28T01:14:06.836Z,19.28
2022-09-28T01:16:34.186Z,19.31
2022-09-28T01:19:15.441Z,19.22
2022-09-28T01:21:42.049Z,19.21
2022-09-28T01:24:15.231Z,19.26
2022-09-28T01:26:45.115Z,19.21
2022-09-28T01:29:14.664Z,19.27
2022-09-28T01:31:38.546Z,19.41
2022-09-28T01:34:05.476Z,19.38
2022-09-28T01:36:29.301Z,19.34
2022-09-28T01:38:53.812Z,19.33
2022-09-28T01:41:17.852Z,19.27
2022-09-28T01:43:44.339Z,19.33
2022-09-28T01:46:09.427Z,19.24
2022-09-28T01:48:34.642Z,19.32
2022-09-28T01:50:59.383Z,19.19
2022-09-28T01:53:23.692Z,19.20
2022-09-28T01:55:49.366Z,19.34
2022-09-28T01:58:14.986Z,19.28
2022-09-28T02:00:41.572Z,19.20
2022-09-28T02:03:07.383Z,19.20
2022-09-28T02:05:40.263Z,19.21
2022-09-28T02:08:04.484Z,19.22
2022-09-28T02:10:30.092Z,19.08
2022-09-28T02:12:54.587Z,19.24
2022-09-28T02:15:20.253Z,19.17
2022-09-28T02:17:44.862Z,19.15
2022-09-28T02:20:10.100Z,19.21
2022-09-28T02:22:34.975Z,19.22
2022-09-28T02:24:59.712Z,19.18
2022-09-28T02:27:30.763Z,19.12
2022-09-28T02:29:54.049Z,19.24
2022-09-28T02:32:17.314Z,19.30
2022-09-28T02:34:41.861Z,19.26
2022-09-28T02:37:05.133Z,19.32
2022-09-28T02:39:28.279Z,19.31
2022-09-28T02:41:56.317Z,19.31
2022-09-28T02:44:30.999Z,19.22
2022-09-28T02:46:56.794Z,19.36
2022-09-28T02:49:28.147Z,19.55
2022-09-28T02:52:03.199Z,19.55
2022-09-28T02:54:50.464Z,19.35
2022-09-28T02:57:19.673Z,19.10
2022-09-28T02:59:51.620Z,18.92
2022-09-28T03:02:20.904Z,18.90
2022-09-28T03:04:46.239Z,18.92
2022-09-28T03:07:18.985Z,18.87
2022-09-28T03:09:44.473Z,18.95
2022-09-28T03:12:09.982Z,18.87
2022-09-28T03:14:33.191Z,18.96
2022-09-28T03:16:56.567Z,18.87
2022-09-28T03:19:21.135Z,18.93
2022-09-28T03:21:44.085Z,18.92
2022-09-28T03:24:11.163Z,18.86
2022-09-28T03:26:34.523Z,18.94
2022-09-28T03:28:58.056Z,19.01
2022-09-28T03:31:22.796Z,18.97
2022-09-28T03:33:46.608Z,18.99
2022-09-28T03:36:10.637Z,19.00
2022-09-28T03:38:34.455Z,19.19
2022-09-28T03:40:59.910Z,19.25
2022-09-28T03:43:27.200Z,19.32
2022-09-28T03:45:54.971Z,19.21
2022-09-28T03:48:23.157Z,19.07
2022-09-28T03:50:47.750Z,19.10
2022-09-28T03:53:10.954Z,19.12
2022-09-28T03:55:34.294Z,19.19
2022-09-28T03:57:58.978Z,19.15
2022-09-28T04:00:22.501Z,19.07
2022-09-28T04:02:45.694Z,19.23
2022-09-28T04:05:09.454Z,19.38
2022-09-28T04:07:34.106Z,19.17
2022-09-28T04:09:57.563Z,19.15
2022-09-28T04:12:20.765Z,19.18
2022-09-28T04:14:45.842Z,19.19
2022-09-28T04:17:09.018Z,19.15
2022-09-28T04:19:32.714Z,19.10
2022-09-28T04:22:16.326Z,19.28
2022-09-28T04:24:40.246Z,19.31
2022-09-28T04:27:17.328Z,19.36
2022-09-28T04:29:44.170Z,19.15
2022-09-28T04:32:10.361Z,19.11
2022-09-28T04:34:37.858Z,19.06
2022-09-28T04:37:01.985Z,19.06
2022-09-28T04:39:25.289Z,19.13
2022-09-28T04:41:50.704Z,18.99
2022-09-28T04:44:13.909Z,19.23
2022-09-28T04:46:37.345Z,19.47
2022-09-28T04:49:20.450Z,19.61
2022-09-28T04:51:49.745Z,19.58
2022-09-28T04:54:12.885Z,19.30
2022-09-28T04:56:36.114Z,19.40
2022-09-28T04:59:00.402Z,19.50
2022-09-28T05:01:24.877Z,19.31
2022-09-28T05:03:57.371Z,19.32
2022-09-28T05:06:34.881Z,19.25
2022-09-28T05:09:01.562Z,19.15
2022-09-28T05:11:24.908Z,19.03
2022-09-28T05:13:48.946Z,19.07
2022-09-28T05:16:14.205Z,19.13
2022-09-28T05:18:56.540Z,19.19
2022-09-28T05:21:20.179Z,19.12
2022-09-28T05:23:48.625Z,19.13
2022-09-28T05:26:12.422Z,19.11
2022-09-28T05:28:35.726Z,19.07
2022-09-28T05:31:27.183Z,18.92
2022-09-28T05:34:19.901Z,18.96
2022-09-28T05:36:45.739Z,18.96
2022-09-28T05:39:10.599Z,19.00
2022-09-28T05:41:34.048Z,19.13
2022-09-28T05:43:58.182Z,19.23
2022-09-28T05:46:22.539Z,19.26
2022-09-28T05:48:46.749Z,19.20
2022-09-28T05:51:10.231Z,19.08
2022-09-28T05:53:33.571Z,19.06
2022-09-28T05:56:00.233Z,19.13
2022-09-28T05:58:23.494Z,19.21
2022-09-28T06:00:46.725Z,19.22
2022-09-28T06:03:12.426Z,19.19
2022-09-28T06:05:36.274Z,19.21
2022-09-28T06:07:59.857Z,19.22
2022-09-28T06:10:23.432Z,19.34
2022-09-28T06:12:48.749Z,19.35
2022-09-28T06:15:13.273Z,19.32
2022-09-28T06:17:36.483Z,19.36
2022-09-28T06:20:36.690Z,19.44
2022-09-28T06:23:13.833Z,19.53
2022-09-28T06:25:37.103Z,19.53
2022-09-28T06:28:02.778Z,19.60
2022-09-28T06:30:27.242Z,19.64
2022-09-28T06:32:53.744Z,19.68
2022-09-28T06:35:17.131Z,19.71
2022-09-28T06:37:40.352Z,19.77
2022-09-28T06:40:03.777Z,19.81
2022-09-28T06:42:27.299Z,19.88
2022-09-28T06:45:11.377Z,19.89
2022-09-28T06:48:00.875Z,19.92
2022-09-28T06:50:32.606Z,19.94
2022-09-28T06:53:09.450Z,19.98
2022-09-28T06:55:49.123Z,19.99
2022-09-28T06:58:14.779Z,19.99
2022-09-28T07:00:39.699Z,20.01
2022-09-28T07:03:04.212Z,20.01
2022-09-28T07:05:48.423Z,20.00
2022-09-28T07:08:30.242Z,20.05
2022-09-28T07:11:01.419Z,20.02
2022-09-28T07:13:51.922Z,20.05
2022-09-28T07:16:24.124Z,20.06
2022-09-28T07:18:50.062Z,20.09
2022-09-28T07:21:26.207Z,20.07
2022-09-28T07:23:54.321Z,20.14
2022-09-28T07:26:23.657Z,20.16
2022-09-28T07:28:58.852Z,20.24
2022-09-28T07:31:29.748Z,20.26
2022-09-28T07:34:13.628Z,20.29
2022-09-28T07:36:59.716Z,20.34
2022-09-28T07:39:22.909Z,20.38
2022-09-28T07:41:45.087Z,20.38
2022-09-28T07:44:08.274Z,20.41
2022-09-28T07:46:34.768Z,20.42
2022-09-28T07:49:08.388Z,20.41
2022-09-28T07:51:56.510Z,20.44
2022-09-28T07:54:40.553Z,20.47
2022-09-28T07:57:29.655Z,20.49
2022-09-28T08:00:13.780Z,20.52
2022-09-28T08:02:44.674Z,20.48
2022-09-28T08:05:13.638Z,20.52
2022-09-28T08:07:38.257Z,20.54
2022-09-28T08:10:04.883Z,20.56
2022-09-28T08:12:55.169Z,20.61
2022-09-28T08:15:51.981Z,20.61
2022-09-28T08:18:24.539Z,20.62
2022-09-28T08:21:05.028Z,20.66
2022-09-28T08:23:28.270Z,20.68
2022-09-28T08:25:54.114Z,20.71
2022-09-28T08:28:18.941Z,20.74
2022-09-28T08:30:44.325Z,20.75
2022-09-28T08:33:31.706Z,20.77
2022-09-28T08:36:13.987Z,20.79
2022-09-28T08:39:12.872Z,20.80
2022-09-28T08:42:08.857Z,20.82
2022-09-28T08:45:09.260Z,20.82
2022-09-28T08:47:54.403Z,20.84
2022-09-28T08:50:32.555Z,20.85
2022-09-28T08:53:28.905Z,20.75
2022-09-28T08:56:05.925Z,20.86
2022-09-28T08:58:30.472Z,20.88
2022-09-28T09:00:54.303Z,20.88
2022-09-28T09:03:22.494Z,20.84
2022-09-28T09:06:04.016Z,20.91
2022-09-28T09:08:51.736Z,20.92
2022-09-28T09:11:20.238Z,20.94
2022-09-28T09:13:53.962Z,20.94
2022-09-28T09:16:25.681Z,20.96
2022-09-28T09:19:18.357Z,20.97
2022-09-28T09:22:17.822Z,20.94
2022-09-28T09:24:43.345Z,20.98
2022-09-28T09:27:07.623Z,20.99
2022-09-28T09:29:37.213Z,20.99
2022-09-28T09:32:23.897Z,20.98
2022-09-28T09:35:08.825Z,20.95
2022-09-28T09:38:03.209Z,20.98
2022-09-28T09:41:06.247Z,20.98
2022-09-28T09:44:08.519Z,20.99
2022-09-28T09:46:53.667Z,20.99
2022-09-28T09:49:23.871Z,20.98
2022-09-28T09:51:48.883Z,20.98
2022-09-28T09:54:19.315Z,20.99
2022-09-28T09:56:44.097Z,20.99
2022-09-28T09:59:15.559Z,20.92
2022-09-28T10:01:59.056Z,20.95
2022-09-28T10:04:38.207Z,20.99
2022-09-28T10:07:10.547Z,21.00
2022-09-28T10:09:37.282Z,21.02
2022-09-28T10:12:31.146Z,21.03
2022-09-28T10:14:56.680Z,21.00
2022-09-28T10:17:27.387Z,20.98
2022-09-28T10:20:13.095Z,20.99
2022-09-28T10:22:48.619Z,21.01
2022-09-28T10:25:15.152Z,20.99
2022-09-28T10:27:41.413Z,20.95
2022-09-28T10:30:12.788Z,21.03
2022-09-28T10:32:40.124Z,21.05
2022-09-28T10:35:15.579Z,21.05
2022-09-28T10:37:48.423Z,21.05
2022-09-28T10:40:41.497Z,21.06
2022-09-28T10:43:06.295Z,21.05
2022-09-28T10:45:31.638Z,20.98
2022-09-28T10:47:55.833Z,21.05
2022-09-28T10:50:21.467Z,21.07
2022-09-28T10:52:46.767Z,21.07
2022-09-28T10:55:30.693Z,21.09
2022-09-28T10:57:55.375Z,21.09
2022-09-28T11:00:31.400Z,21.09
2022-09-28T11:03:18.954Z,21.09
2022-09-28T11:05:43.502Z,21.09
2022-09-28T11:08:08.057Z,21.11
2022-09-28T11:10:39.469Z,21.08
2022-09-28T11:13:11.927Z,21.07
2022-09-28T11:15:38.382Z,21.09
2022-09-28T11:18:19.902Z,21.09
2022-09-28T11:20:45.408Z,21.10
2022-09-28T11:23:22.836Z,21.13
2022-09-28T11:26:00.193Z,21.11
2022-09-28T11:28:26.746Z,21.11
2022-09-28T11:30:51.366Z,21.20
2022-09-28T11:33:26.813Z,21.21
2022-09-28T11:36:21.856Z,21.22
2022-09-28T11:38:47.866Z,21.22
2022-09-28T11:41:52.693Z,21.23
2022-09-28T11:44:28.170Z,21.26
2022-09-28T11:47:08.763Z,21.28
2022-09-28T11:49:34.361Z,21.30
2022-09-28T11:51:58.467Z,21.28
2022-09-28T11:54:26.206Z,21.28
2022-09-28T11:56:50.426Z,21.29
2022-09-28T11:59:14.485Z,21.28
2022-09-28T12:01:45.002Z,21.28
2022-09-28T12:04:20.004Z,21.40
2022-09-28T12:06:47.119Z,21.42
2022-09-28T12:09:15.692Z,21.46
2022-09-28T12:12:07.693Z,21.53
2022-09-28T12:14:40.454Z,21.51
2022-09-28T12:17:09.692Z,21.46
2022-09-28T12:19:34.563Z,21.48
2022-09-28T12:21:58.548Z,21.46
2022-09-28T12:24:24.776Z,21.46
2022-09-28T12:26:49.855Z,21.47
2022-09-28T12:29:15.133Z,21.42
2022-09-28T12:31:39.543Z,21.45
2022-09-28T12:34:04.215Z,21.53
2022-09-28T12:36:41.855Z,21.52
2022-09-28T12:39:21.693Z,21.50
2022-09-28T12:41:55.294Z,21.55
2022-09-28T12:44:39.137Z,21.65
2022-09-28T12:47:10.619Z,21.75
2022-09-28T12:52:30.323Z,21.87
2022-09-28T12:55:19.115Z,21.93
2022-09-28T12:57:47.702Z,21.92
2022-09-28T13:00:12.396Z,21.95
2022-09-28T13:03:16.080Z,21.98
2022-09-28T13:06:06.619Z,21.96
2022-09-28T13:08:32.494Z,21.95
2022-09-28T13:11:02.229Z,21.94
2022-09-28T13:13:34.481Z,21.92
2022-09-28T13:15:58.943Z,21.92
2022-09-28T13:18:24.119Z,21.90
2022-09-28T13:21:00.320Z,21.90
2022-09-28T13:23:26.500Z,21.88
2022-09-28T13:25:53.182Z,21.87
2022-09-28T13:28:16.641Z,21.86
2022-09-28T13:30:40.320Z,21.87
2022-09-28T13:33:04.962Z,21.87
2022-09-28T13:35:28.452Z,21.87
2022-09-28T13:38:13.573Z,21.87
2022-09-28T13:40:51.465Z,21.86
2022-09-28T13:43:19.740Z,21.87
2022-09-28T13:45:53.998Z,21.87
2022-09-28T13:48:17.764Z,21.89
2022-09-28T13:50:52.008Z,21.89
2022-09-28T13:53:20.258Z,21.90
2022-09-28T13:55:53.953Z,21.91
2022-09-28T13:58:20.750Z,21.89
2022-09-28T14:00:47.114Z,21.87
2022-09-28T14:03:14.970Z,21.87
2022-09-28T14:05:49.409Z,21.85
2022-09-28T14:08:34.249Z,21.83
2022-09-28T14:10:57.642Z,21.83
2022-09-28T14:13:58.295Z,21.83
2022-09-28T14:16:23.326Z,21.81
2022-09-28T14:18:46.617Z,21.81
2022-09-28T14:21:51.756Z,21.81
2022-09-28T14:24:21.139Z,21.76
2022-09-28T14:26:55.774Z,21.76
2022-09-28T14:29:28.869Z,21.77
2022-09-28T14:31:54.547Z,21.74
2022-09-28T14:34:34.423Z,21.73
2022-09-28T14:37:15.073Z,21.71
2022-09-28T14:39:55.427Z,21.69
2022-09-28T14:42:19.448Z,21.68
2022-09-28T14:45:20.007Z,21.67
2022-09-28T14:47:44.851Z,21.63
2022-09-28T14:50:22.241Z,21.62
2022-09-28T14:52:47.417Z,21.61
2022-09-28T14:55:15.472Z,21.57
2022-09-28T14:57:38.631Z,21.59
2022-09-28T15:00:02.210Z,21.57
2022-09-28T15:02:26.518Z,21.54
2022-09-28T15:04:52.914Z,21.58
2022-09-28T15:07:24.038Z,21.55
2022-09-28T15:09:49.635Z,21.56
2022-09-28T15:12:15.822Z,21.55
2022-09-28T15:14:42.944Z,21.56
2022-09-28T15:17:09.990Z,21.51
2022-09-28T15:19:34.223Z,21.56
2022-09-28T15:21:58.767Z,21.56
2022-09-28T15:24:40.647Z,21.57
2022-09-28T15:27:04.884Z,21.56
2022-09-28T15:29:31.324Z,21.56
2022-09-28T15:31:54.828Z,21.55
2022-09-28T15:34:48.807Z,21.56
2022-09-28T15:37:13.438Z,21.54
2022-09-28T15:39:36.357Z,21.54
2022-09-28T15:41:59.990Z,21.49
2022-09-28T15:44:30.481Z,21.44
2022-09-28T15:47:06.468Z,21.50
2022-09-28T15:49:38.137Z,21.49
2022-09-28T15:52:03.075Z,21.49
2022-09-28T15:54:29.143Z,21.49
2022-09-28T15:56:53.637Z,21.48
2022-09-28T15:59:19.578Z,21.47
2022-09-28T16:01:43.210Z,21.44
2022-09-28T16:04:37.512Z,21.46
2022-09-28T16:07:06.653Z,21.45
2022-09-28T16:09:40.304Z,21.46
2022-09-28T16:12:10.984Z,21.45
2022-09-28T16:14:34.143Z,21.45
2022-09-28T16:17:00.426Z,21.45
2022-09-28T16:19:24.573Z,21.44
2022-09-28T16:21:48.210Z,21.44
2022-09-28T16:24:20.054Z,21.40
2022-09-28T16:26:44.689Z,21.45
2022-09-28T16:29:08.002Z,21.45
2022-09-28T16:31:34.490Z,21.39
2022-09-28T16:33:59.609Z,21.35
2022-09-28T16:36:23.157Z,21.36
2022-09-28T16:38:46.364Z,21.40
2022-09-28T16:41:09.686Z,21.34
2022-09-28T16:43:36.627Z,21.29
2022-09-28T16:46:00.841Z,21.32
2022-09-28T16:48:24.601Z,21.34
2022-09-28T16:50:47.832Z,21.35
2022-09-28T16:53:31.665Z,21.31
2022-09-28T16:55:54.926Z,21.31
2022-09-28T16:58:18.672Z,21.30
2022-09-28T17:00:45.768Z,21.25
2022-09-28T17:03:19.000Z,21.22
2022-09-28T17:05:42.843Z,21.26
2022-09-28T17:08:06.497Z,21.22
2022-09-28T17:10:44.834Z,21.19
2022-09-28T17:13:16.789Z,21.24
2022-09-28T17:15:40.209Z,21.27
2022-09-28T17:18:05.192Z,21.27
2022-09-28T17:20:29.518Z,21.30
2022-09-28T17:22:53.457Z,21.31
2022-09-28T17:25:16.870Z,21.29
2022-09-28T17:27:40.254Z,21.32
2022-09-28T17:30:06.766Z,21.29
2022-09-28T17:32:32.551Z,21.22
2022-09-28T17:35:19.852Z,21.19
2022-09-28T17:37:40.879Z,21.26
2022-09-28T17:40:04.035Z,21.27
2022-09-28T17:42:27.262Z,21.19
2022-09-28T17:44:50.409Z,21.12
2022-09-28T17:47:13.559Z,21.19
2022-09-28T17:49:37.254Z,21.16
2022-09-28T17:52:03.647Z,21.12
2022-09-28T17:54:27.278Z,21.17
2022-09-28T17:56:50.429Z,21.13
2022-09-28T17:59:14.759Z,21.12
2022-09-28T18:01:39.711Z,21.13
2022-09-28T18:04:03.618Z,21.08
2022-09-28T18:06:26.802Z,21.05
2022-09-28T18:08:51.422Z,21.12
2022-09-28T18:11:14.325Z,21.18
2022-09-28T18:13:37.544Z,21.21
2022-09-28T18:16:00.901Z,21.21
2022-09-28T18:18:24.161Z,21.14
2022-09-28T18:20:47.385Z,21.14
2022-09-28T18:23:10.570Z,21.18
2022-09-28T18:25:35.214Z,21.21
2022-09-28T18:28:00.239Z,21.15
2022-09-28T18:30:23.471Z,21.08
2022-09-28T18:32:46.760Z,20.98
2022-09-28T18:35:11.530Z,20.98
2022-09-28T18:37:37.493Z,21.03
2022-09-28T18:40:00.755Z,21.02
2022-09-28T18:42:25.464Z,20.94
2022-09-28T18:44:48.614Z,20.97
2022-09-28T18:47:13.647Z,20.97
2022-09-28T18:49:36.788Z,20.98
2022-09-28T18:52:00.101Z,21.03
2022-09-28T18:54:24.620Z,21.01
2022-09-28T18:56:47.568Z,20.90
2022-09-28T18:59:12.619Z,21.03
2022-09-28T19:01:36.632Z,21.07
2022-09-28T19:04:00.700Z,21.12
2022-09-28T19:06:24.038Z,21.13
2022-09-28T19:08:52.840Z,21.03
2022-09-28T19:11:16.675Z,21.06
2022-09-28T19:13:39.902Z,21.00
2022-09-28T19:16:09.724Z,21.00
2022-09-28T19:18:33.017Z,20.89
2022-09-28T19:20:56.234Z,20.80
2022-09-28T19:23:19.560Z,20.80
2022-09-28T19:25:42.895Z,20.90
2022-09-28T19:28:06.124Z,20.95
2022-09-28T19:30:29.523Z,21.07
2022-09-28T19:32:54.073Z,21.13
2022-09-28T19:35:17.194Z,21.14
2022-09-28T19:37:40.414Z,21.17
2022-09-28T19:40:03.951Z,21.20
2022-09-28T19:42:27.123Z,21.22
2022-09-28T19:44:51.063Z,21.24
2022-09-28T19:47:14.229Z,21.25
2022-09-28T19:49:39.626Z,21.21
2022-09-28T19:52:18.204Z,21.01
2022-09-28T19:54:43.963Z,20.92
2022-09-28T19:57:08.572Z,20.99
2022-09-28T19:59:32.024Z,20.85
2022-09-28T20:01:56.399Z,20.88
2022-09-28T20:04:22.892Z,20.82
2022-09-28T20:06:50.149Z,20.85
2022-09-28T20:09:13.308Z,20.67
2022-09-28T20:11:36.482Z,20.75
2022-09-28T20:14:00.926Z,20.72
2022-09-28T20:16:24.577Z,20.66
2022-09-28T20:18:50.221Z,20.85
2022-09-28T20:21:17.193Z,20.97
2022-09-28T20:23:44.591Z,21.05
2022-09-28T20:26:09.185Z,21.08
2022-09-28T20:28:32.889Z,21.11
2022-09-28T20:30:57.335Z,21.00
2022-09-28T20:33:28.631Z,20.77
2022-09-28T20:35:52.284Z,20.71
2022-09-28T20:38:15.512Z,20.81
2022-09-28T20:40:40.278Z,20.85
2022-09-28T20:43:03.539Z,20.88
2022-09-28T20:45:26.646Z,20.80
2022-09-28T20:47:49.847Z,20.82
2022-09-28T20:50:12.967Z,20.79
2022-09-28T20:52:36.141Z,20.83
2022-09-28T20:54:59.501Z,20.75
2022-09-28T20:57:24.586Z,20.77
2022-09-28T20:59:52.292Z,20.70
2022-09-28T21:02:18.283Z,20.76
2022-09-28T21:04:41.611Z,20.81
2022-09-28T21:07:04.734Z,20.87
2022-09-28T21:09:30.078Z,20.89
2022-09-28T21:11:53.254Z,20.90
2022-09-28T21:14:18.604Z,20.93
2022-09-28T21:16:41.786Z,20.89
2022-09-28T21:19:05.191Z,20.86
2022-09-28T21:21:28.392Z,20.86
2022-09-28T21:23:53.226Z,20.92
2022-09-28T21:26:24.766Z,20.97
2022-09-28T21:28:47.967Z,21.02
2022-09-28T21:31:12.705Z,21.08
2022-09-28T21:33:36.117Z,21.12
2022-09-28T21:36:01.719Z,21.10
2022-09-28T21:38:24.855Z,20.87
2022-09-28T21:40:48.528Z,20.84
2022-09-28T21:43:11.711Z,20.69
2022-09-28T21:45:34.898Z,20.64
2022-09-28T21:47:59.581Z,20.69
2022-09-28T21:50:23.075Z,20.53
2022-09-28T21:52:46.209Z,20.38
2022-09-28T21:55:10.530Z,20.42
2022-09-28T21:57:33.776Z,20.38
2022-09-28T21:59:56.945Z,20.35
2022-09-28T22:02:21.607Z,20.33
2022-09-28T22:04:46.146Z,20.26
2022-09-28T22:07:09.362Z,20.44
2022-09-28T22:09:32.518Z,20.39
2022-09-28T22:11:55.739Z,20.56
2022-09-28T22:14:18.882Z,20.62
2022-09-28T22:16:42.281Z,20.70
2022-09-28T22:19:05.446Z,20.82
2022-09-28T22:21:31.885Z,20.90
2022-09-28T22:23:55.111Z,20.97
2022-09-28T22:26:19.625Z,20.74
2022-09-28T22:28:45.737Z,21.02
2022-09-28T22:31:08.931Z,21.04
2022-09-28T22:33:32.250Z,21.06
2022-09-28T22:35:55.475Z,21.10
2022-09-28T22:38:20.285Z,21.02
2022-09-28T22:40:43.751Z,20.72
2022-09-28T22:43:07.098Z,20.47
2022-09-28T22:45:30.237Z,20.50
2022-09-28T22:47:53.456Z,20.55
2022-09-28T22:50:16.653Z,20.52
2022-09-28T22:52:39.829Z,20.64
2022-09-28T22:55:04.696Z,20.65
2022-09-28T22:57:27.856Z,20.69
2022-09-28T22:59:51.028Z,20.77
2022-09-28T23:02:14.214Z,20.61
2022-09-28T23:04:37.394Z,20.50
2022-09-28T23:07:00.543Z,20.35
2022-09-28T23:09:23.698Z,20.43
2022-09-28T23:11:48.252Z,20.62
2022-09-28T23:14:12.101Z,20.49
2022-09-28T23:16:35.258Z,20.62
2022-09-28T23:18:58.690Z,20.48
2022-09-28T23:21:22.660Z,20.56
2022-09-28T23:23:45.872Z,20.68
2022-09-28T23:26:12.848Z,20.82
2022-09-28T23:28:37.413Z,20.90
2022-09-28T23:31:08.224Z,20.87
2022-09-28T23:33:31.426Z,20.85
2022-09-28T23:35:54.614Z,20.56
2022-09-28T23:38:18.807Z,20.47
2022-09-28T23:40:42.079Z,20.58
2022-09-28T23:43:05.286Z,20.42
2022-09-28T23:45:29.916Z,20.31
2022-09-28T23:47:52.823Z,20.41
2022-09-28T23:50:15.961Z,20.37
2022-09-28T23:52:39.290Z,20.48
2022-09-28T23:55:02.493Z,20.46
2022-09-28T23:57:25.631Z,20.50
2022-09-28T23:59:48.901Z,20.41
